createdAt,value
2022-08-09T00:00:04.774Z,6.00
2022-08-09T00:02:33.960Z,8.52
2022-08-09T00:06:16.262Z,6.32
2022-08-09T00:07:48.443Z,6.68
2022-08-09T00:10:17.913Z,8.57
2022-08-09T00:12:51.732Z,11.02
2022-08-09T00:15:20.444Z,6.28
2022-08-09T00:18:07.560Z,6.38
2022-08-09T00:20:41.560Z,8.60
2022-08-09T00:23:58.022Z,6.87
2022-08-09T00:26:05.214Z,8.70
2022-08-09T00:28:34.501Z,10.32
2022-08-09T00:31:30.694Z,8.65
2022-08-09T00:33:51.887Z,7.95
2022-08-09T00:36:20.282Z,7.77
2022-08-09T00:38:50.670Z,11.40
2022-08-09T00:44:16.858Z,8.38
2022-08-09T00:44:19.712Z,6.53
2022-08-09T00:47:04.854Z,6.65
2022-08-09T00:49:32.659Z,6.47
2022-08-09T00:52:05.137Z,6.50
2022-08-09T00:54:35.110Z,9.75
2022-08-09T00:57:08.824Z,6.40
2022-08-09T00:59:41.527Z,5.53
2022-08-09T01:02:19.163Z,5.73
2022-08-09T01:05:22.130Z,7.57
2022-08-09T01:08:00.492Z,8.45
2022-08-09T01:10:37.076Z,9.55
2022-08-09T01:13:13.565Z,6.97
2022-08-09T01:15:52.020Z,7.37
2022-08-09T01:18:29.934Z,6.93
2022-08-09T01:21:17.250Z,8.68
2022-08-09T01:24:09.651Z,8.65
2022-08-09T01:26:46.249Z,9.18
2022-08-09T01:29:15.952Z,14.27
2022-08-09T01:32:31.430Z,6.78
2022-08-09T01:34:35.589Z,7.30
2022-08-09T01:37:08.888Z,9.35
2022-08-09T01:39:37.894Z,7.70
2022-08-09T01:42:11.230Z,6.07
2022-08-09T01:44:39.191Z,7.50
2022-08-09T01:47:07.172Z,7.85
2022-08-09T01:49:39.955Z,7.85
2022-08-09T01:52:14.692Z,8.55
2022-08-09T01:54:50.856Z,9.83
2022-08-09T01:57:26.492Z,8.43
2022-08-09T02:00:08.826Z,7.55
2022-08-09T02:02:50.907Z,9.05
2022-08-09T02:05:21.425Z,9.55
2022-08-09T02:08:41.211Z,8.77
2022-08-09T02:11:13.420Z,6.65
2022-08-09T02:14:06.657Z,9.98
2022-08-09T02:16:52.859Z,8.52
2022-08-09T02:19:22.459Z,6.68
2022-08-09T02:21:55.190Z,9.97
2022-08-09T02:24:26.882Z,7.75
2022-08-09T02:26:58.757Z,9.07
2022-08-09T02:29:31.348Z,9.32
2022-08-09T02:32:01.744Z,11.40
2022-08-09T02:34:40.851Z,7.53
2022-08-09T02:37:14.733Z,9.57
2022-08-09T02:39:49.702Z,12.05
2022-08-09T02:42:26.551Z,7.65
2022-08-09T02:45:00.794Z,8.35
2022-08-09T02:47:33.902Z,7.83
2022-08-09T02:50:24.642Z,10.93
2022-08-09T02:53:26.119Z,7.75
2022-08-09T02:55:58.838Z,9.15
2022-08-09T02:58:35.661Z,9.05
2022-08-09T03:01:06.114Z,10.40
2022-08-09T03:04:12.350Z,9.40
2022-08-09T03:06:27.556Z,8.77
2022-08-09T03:08:55.375Z,9.55
2022-08-09T03:12:06.319Z,10.77
2022-08-09T03:14:11.970Z,8.43
2022-08-09T03:16:44.805Z,7.85
2022-08-09T03:19:15.694Z,9.00
2022-08-09T03:22:03.158Z,7.30
2022-08-09T03:24:39.852Z,7.78
2022-08-09T03:27:12.327Z,9.47
2022-08-09T03:29:57.283Z,8.35
2022-08-09T03:32:29.965Z,7.35
2022-08-09T03:34:58.083Z,10.25
2022-08-09T03:37:56.662Z,8.65
2022-08-09T03:40:13.197Z,7.40
2022-08-09T03:42:40.126Z,7.70
2022-08-09T03:45:10.480Z,11.55
2022-08-09T03:47:41.844Z,9.95
2022-08-09T03:50:10.998Z,8.23
2022-08-09T03:52:40.414Z,9.43
2022-08-09T03:55:10.569Z,8.68
2022-08-09T03:57:53.700Z,11.13
2022-08-09T04:00:30.141Z,8.75
2022-08-09T04:02:58.851Z,8.30
2022-08-09T04:05:27.853Z,8.47
2022-08-09T04:07:56.940Z,10.88
2022-08-09T04:10:29.745Z,9.68
2022-08-09T04:13:01.423Z,9.75
2022-08-09T04:16:18.756Z,11.98
2022-08-09T04:18:21.152Z,11.27
2022-08-09T04:20:48.777Z,10.63
2022-08-09T04:23:17.274Z,12.85
2022-08-09T04:25:44.988Z,12.52
2022-08-09T04:28:33.260Z,11.18
2022-08-09T04:31:08.192Z,9.13
2022-08-09T04:33:52.056Z,10.27
2022-08-09T04:36:21.420Z,10.38
2022-08-09T04:38:50.129Z,10.18
2022-08-09T04:41:16.756Z,10.70
2022-08-09T04:43:53.776Z,8.47
2022-08-09T04:46:37.856Z,12.48
2022-08-09T04:49:17.412Z,11.18
2022-08-09T04:51:56.963Z,10.77
2022-08-09T04:54:23.864Z,10.93
2022-08-09T04:56:50.459Z,8.57
2022-08-09T04:59:17.186Z,9.02
2022-08-09T05:01:48.735Z,10.27
2022-08-09T05:04:15.501Z,9.23
2022-08-09T05:06:44.144Z,10.85
2022-08-09T05:09:10.880Z,9.77
2022-08-09T05:11:39.057Z,9.63
2022-08-09T05:14:06.649Z,10.05
2022-08-09T05:16:58.526Z,9.43
2022-08-09T05:19:24.427Z,8.50
2022-08-09T05:21:55.677Z,8.27
2022-08-09T05:24:24.173Z,8.85
2022-08-09T05:26:51.868Z,12.68
2022-08-09T05:29:22.728Z,10.45
2022-08-09T05:31:57.414Z,9.73
2022-08-09T05:34:31.081Z,9.50
2022-08-09T05:37:01.463Z,8.50
2022-08-09T05:39:35.829Z,9.15
2022-08-09T05:42:17.329Z,7.55
2022-08-09T05:44:52.434Z,8.00
2022-08-09T05:47:24.432Z,10.73
2022-08-09T05:50:26.087Z,13.55
2022-08-09T05:52:40.332Z,12.20
2022-08-09T05:55:09.863Z,8.13
2022-08-09T05:57:50.814Z,9.00
2022-08-09T06:00:23.286Z,7.87
2022-08-09T06:02:54.222Z,7.43
2022-08-09T06:05:30.706Z,9.70
2022-08-09T06:08:09.092Z,11.88
2022-08-09T06:10:40.473Z,9.73
2022-08-09T06:13:18.158Z,11.00
2022-08-09T06:15:47.239Z,8.80
2022-08-09T06:18:26.735Z,9.27
2022-08-09T06:20:57.622Z,11.35
2022-08-09T06:23:57.433Z,9.30
2022-08-09T06:26:14.985Z,11.00
2022-08-09T06:28:48.882Z,7.57
2022-08-09T06:31:30.486Z,9.27
2022-08-09T06:33:59.114Z,12.15
2022-08-09T06:36:32.664Z,7.35
2022-08-09T06:39:12.626Z,11.37
2022-08-09T06:42:08.118Z,12.88
2022-08-09T06:47:23.705Z,9.70
2022-08-09T06:50:14.196Z,9.48
2022-08-09T06:52:48.516Z,9.90
2022-08-09T06:55:17.948Z,10.93
2022-08-09T06:58:03.526Z,8.27
2022-08-09T07:00:50.246Z,9.75
2022-08-09T07:03:27.825Z,9.55
2022-08-09T07:06:03.534Z,9.60
2022-08-09T07:08:31.319Z,7.10
2022-08-09T07:10:57.978Z,7.97
2022-08-09T07:13:28.146Z,11.18
2022-08-09T07:16:42.092Z,7.13
2022-08-09T07:18:44.756Z,8.73
2022-08-09T07:21:14.573Z,8.13
2022-08-09T07:23:56.594Z,7.25
2022-08-09T07:26:34.808Z,7.13
2022-08-09T07:29:13.544Z,7.90
2022-08-09T07:31:50.711Z,7.53
2022-08-09T07:38:31.075Z,4.72
2022-08-09T07:41:17.069Z,7.07
2022-08-09T07:43:55.821Z,4.38
2022-08-09T07:47:10.576Z,7.50
2022-08-09T07:50:04.403Z,6.68
2022-08-09T07:52:35.650Z,4.72
2022-08-09T07:55:19.331Z,7.55
2022-08-09T07:58:06.089Z,4.60
2022-08-09T08:03:37.035Z,6.63
2022-08-09T08:09:38.588Z,6.30
2022-08-09T08:15:28.582Z,5.20
2022-08-09T08:18:04.583Z,5.50
2022-08-09T08:27:02.138Z,4.15
2022-08-09T08:35:08.246Z,3.80
2022-08-09T08:38:02.163Z,4.63
2022-08-09T08:43:49.661Z,6.13
2022-08-09T08:55:41.678Z,4.93
2022-08-09T08:58:23.988Z,2.73
2022-08-09T09:05:09.973Z,5.03
2022-08-09T09:10:51.401Z,3.30
2022-08-09T09:16:35.961Z,4.93
2022-08-09T09:26:04.631Z,5.75
2022-08-09T09:30:08.446Z,2.93
2022-08-09T09:39:00.566Z,3.33
2022-08-09T09:44:31.789Z,3.90
2022-08-09T09:47:28.309Z,2.45
2022-08-09T09:56:09.404Z,5.03
2022-08-09T09:59:10.774Z,6.07
2022-08-09T10:01:57.717Z,4.10
2022-08-09T10:04:30.979Z,3.45
2022-08-09T10:07:03.263Z,3.35
2022-08-09T10:09:54.892Z,7.47
2022-08-09T10:12:33.587Z,4.67
2022-08-09T10:15:51.084Z,5.38
2022-08-09T10:18:11.162Z,4.05
2022-08-09T10:20:44.787Z,4.85
2022-08-09T10:23:22.066Z,3.50
2022-08-09T10:26:07.448Z,5.83
2022-08-09T10:28:39.966Z,3.10
2022-08-09T10:34:10.987Z,4.13
2022-08-09T10:40:12.198Z,5.47
2022-08-09T10:42:59.161Z,3.53
2022-08-09T10:45:35.378Z,5.85
2022-08-09T10:48:30.522Z,3.08
2022-08-09T10:51:18.173Z,2.80
2022-08-09T10:53:54.503Z,6.97
2022-08-09T11:05:35.575Z,5.00
2022-08-09T11:08:47.033Z,4.57
2022-08-09T11:11:18.552Z,2.67
2022-08-09T11:13:51.426Z,3.63
2022-08-09T11:16:41.449Z,3.70
2022-08-09T11:19:10.611Z,4.28
2022-08-09T11:22:05.350Z,3.40
2022-08-09T11:25:03.719Z,3.60
2022-08-09T11:28:04.333Z,4.97
2022-08-09T11:30:38.269Z,3.85
2022-08-09T11:33:41.394Z,3.45
2022-08-09T11:36:14.833Z,3.33
2022-08-09T11:39:07.731Z,4.85
2022-08-09T11:41:40.492Z,2.28
2022-08-09T11:44:24.813Z,3.08
2022-08-09T11:46:56.926Z,5.22
2022-08-09T11:50:56.141Z,3.07
2022-08-09T11:53:16.322Z,5.88
2022-08-09T11:56:02.970Z,6.70
2022-08-09T11:58:33.590Z,2.63
2022-08-09T12:01:37.495Z,2.88
2022-08-09T12:04:20.557Z,3.90
2022-08-09T12:06:56.294Z,3.80
2022-08-09T12:09:33.617Z,5.00
2022-08-09T12:12:05.990Z,3.03
2022-08-09T12:14:40.777Z,3.08
2022-08-09T12:17:34.660Z,3.00
2022-08-09T12:20:22.813Z,2.92
2022-08-09T12:22:55.752Z,3.83
2022-08-09T12:25:36.181Z,3.03
2022-08-09T12:28:59.334Z,2.65
2022-08-09T12:31:10.803Z,1.70
2022-08-09T12:33:59.161Z,2.78
2022-08-09T12:36:33.665Z,3.13
2022-08-09T12:39:01.493Z,9.85
2022-08-09T12:41:38.150Z,7.28
2022-08-09T12:44:13.030Z,2.43
2022-08-09T12:46:51.890Z,3.25
2022-08-09T12:49:20.890Z,2.95
2022-08-09T12:52:00.992Z,4.43
2022-08-09T12:54:29.711Z,4.28
2022-08-09T12:56:59.855Z,3.40
2022-08-09T12:59:57.421Z,3.55
2022-08-09T13:02:17.541Z,3.70
2022-08-09T13:05:00.632Z,2.78
2022-08-09T13:07:51.500Z,3.60
2022-08-09T13:10:18.923Z,3.03
2022-08-09T13:13:09.799Z,3.15
2022-08-09T13:15:35.905Z,2.72
2022-08-09T13:18:09.403Z,2.97
2022-08-09T13:21:04.183Z,2.95
2022-08-09T13:24:16.339Z,4.47
2022-08-09T13:26:39.431Z,3.03
2022-08-09T13:29:18.666Z,4.57
2022-08-09T13:32:14.965Z,5.47
2022-08-09T13:34:48.548Z,4.00
2022-08-09T13:37:24.721Z,2.37
2022-08-09T13:41:51.233Z,3.05
2022-08-09T13:42:50.764Z,5.38
2022-08-09T13:45:17.937Z,4.40
2022-08-09T13:47:49.411Z,2.40
2022-08-09T13:50:30.297Z,4.70
2022-08-09T13:52:58.133Z,6.47
2022-08-09T13:55:24.842Z,7.55
2022-08-09T13:57:58.313Z,3.88
2022-08-09T14:00:28.648Z,3.75
2022-08-09T14:03:02.828Z,5.43
2022-08-09T14:06:00.246Z,4.07
2022-08-09T14:08:30.190Z,2.55
2022-08-09T14:11:01.194Z,2.92
2022-08-09T14:14:22.450Z,4.22
2022-08-09T14:16:18.418Z,3.50
2022-08-09T14:18:49.542Z,5.40
2022-08-09T14:21:22.225Z,4.60
2022-08-09T14:23:55.321Z,3.30
2022-08-09T14:26:31.463Z,3.75
2022-08-09T14:29:08.254Z,2.70
2022-08-09T14:31:53.443Z,5.30
2022-08-09T14:34:30.854Z,5.95
2022-08-09T14:37:06.007Z,7.72
2022-08-09T14:39:40.419Z,3.90
2022-08-09T14:42:31.551Z,7.13
2022-08-09T14:46:40.249Z,6.75
2022-08-09T14:47:59.662Z,3.78
2022-08-09T14:50:29.139Z,4.68
2022-08-09T14:52:56.333Z,4.28
2022-08-09T14:55:24.485Z,3.23
2022-08-09T14:57:51.611Z,4.75
2022-08-09T15:00:18.557Z,3.15
2022-08-09T15:02:52.117Z,5.07
2022-08-09T15:05:20.928Z,3.00
2022-08-09T15:07:56.030Z,4.07
2022-08-09T15:10:25.014Z,4.93
2022-08-09T15:12:54.239Z,4.25
2022-08-09T15:15:22.688Z,2.85
2022-08-09T15:17:52.395Z,3.25
2022-08-09T15:23:56.210Z,7.97
2022-08-09T15:26:00.078Z,3.30
2022-08-09T15:28:33.117Z,3.25
2022-08-09T15:31:13.232Z,4.70
2022-08-09T15:34:17.633Z,4.90
2022-08-09T15:36:30.437Z,4.25
2022-08-09T15:38:59.094Z,4.80
2022-08-09T15:41:31.165Z,2.45
2022-08-09T15:44:03.649Z,3.30
2022-08-09T15:46:33.410Z,4.13
2022-08-09T15:49:22.054Z,5.07
2022-08-09T15:52:04.757Z,2.85
2022-08-09T15:54:48.889Z,4.63
2022-08-09T15:57:35.323Z,4.15
2022-08-09T16:00:14.857Z,3.63
2022-08-09T16:02:53.748Z,4.43
2022-08-09T16:05:22.518Z,4.75
2022-08-09T16:07:52.107Z,7.85
2022-08-09T16:10:55.157Z,3.53
2022-08-09T16:13:13.187Z,5.40
2022-08-09T16:16:10.541Z,3.95
2022-08-09T16:18:35.010Z,6.88
2022-08-09T16:21:01.858Z,6.50
2022-08-09T16:23:30.978Z,5.55
2022-08-09T16:26:00.964Z,6.40
2022-08-09T16:28:30.864Z,6.32
2022-08-09T16:30:59.595Z,7.03
2022-08-09T16:33:27.050Z,3.30
2022-08-09T16:36:01.854Z,4.28
2022-08-09T16:38:31.230Z,4.70
2022-08-09T16:40:59.200Z,4.32
2022-08-09T16:43:30.770Z,6.07
2022-08-09T16:45:57.544Z,8.30
2022-08-09T16:48:41.702Z,5.95
2022-08-09T16:51:14.669Z,5.57
2022-08-09T16:56:34.898Z,5.00
2022-08-09T16:59:10.294Z,5.00
2022-08-09T17:01:43.848Z,5.88
2022-08-09T17:04:28.272Z,2.67
2022-08-09T17:08:46.676Z,5.13
2022-08-09T17:09:47.333Z,3.55
2022-08-09T17:12:14.951Z,8.02
2022-08-09T17:14:47.748Z,5.18
2022-08-09T17:17:26.369Z,3.43
2022-08-09T17:20:29.238Z,3.75
2022-08-09T17:22:49.948Z,4.93
2022-08-09T17:25:18.183Z,3.45
2022-08-09T17:27:49.520Z,4.53
2022-08-09T17:30:25.818Z,5.10
2022-08-09T17:33:04.794Z,3.92
2022-08-09T17:35:41.321Z,4.78
2022-08-09T17:38:24.548Z,5.38
2022-08-09T17:40:57.131Z,2.42
2022-08-09T17:43:33.619Z,5.13
2022-08-09T17:46:06.120Z,6.53
2022-08-09T17:48:38.795Z,4.30
2022-08-09T17:51:18.568Z,4.50
2022-08-09T17:53:55.113Z,4.18
2022-08-09T17:56:35.450Z,5.40
2022-08-09T17:59:11.380Z,3.38
2022-08-09T18:02:03.252Z,3.40
2022-08-09T18:04:25.958Z,4.75
2022-08-09T18:06:55.819Z,4.60
2022-08-09T18:09:40.261Z,4.47
2022-08-09T18:12:20.574Z,4.47
2022-08-09T18:14:54.174Z,3.65
2022-08-09T18:18:01.515Z,3.88
2022-08-09T18:20:56.083Z,3.13
2022-08-09T18:22:57.170Z,5.87
2022-08-09T18:25:50.869Z,2.65
2022-08-09T18:28:21.511Z,3.20
2022-08-09T18:31:00.163Z,4.22
2022-08-09T18:33:29.904Z,2.65
2022-08-09T18:36:01.030Z,5.73
2022-08-09T18:38:28.072Z,4.93
2022-08-09T18:40:55.517Z,4.47
2022-08-09T18:43:25.441Z,3.78
2022-08-09T18:46:50.446Z,1.90
2022-08-09T18:48:42.381Z,1.73
2022-08-09T18:51:09.499Z,4.47
2022-08-09T18:53:59.603Z,2.50
2022-08-09T18:56:28.147Z,2.17
2022-08-09T18:58:56.578Z,4.72
2022-08-09T19:01:24.421Z,2.50
2022-08-09T19:04:01.380Z,2.33
2022-08-09T19:06:33.770Z,2.30
2022-08-09T19:09:03.188Z,6.55
2022-08-09T19:11:37.380Z,3.70
2022-08-09T19:14:06.155Z,2.60
2022-08-09T19:16:38.076Z,1.98
2022-08-09T19:19:23.600Z,4.82
2022-08-09T19:22:06.762Z,2.22
2022-08-09T19:25:07.478Z,3.83
2022-08-09T19:27:21.453Z,12.27
2022-08-09T19:30:21.537Z,4.30
2022-08-09T19:32:35.960Z,2.20
2022-08-09T19:35:04.400Z,3.00
2022-08-09T19:37:40.943Z,2.78
2022-08-09T19:40:21.095Z,2.07
2022-08-09T19:42:49.742Z,3.33
2022-08-09T19:45:16.833Z,2.80
2022-08-09T19:47:44.548Z,3.15
2022-08-09T19:50:50.392Z,3.30
2022-08-09T19:52:59.374Z,4.10
2022-08-09T19:55:52.719Z,5.63
2022-08-09T19:58:30.030Z,6.22
2022-08-09T20:00:57.661Z,4.57
2022-08-09T20:04:09.530Z,4.38
2022-08-09T20:06:23.703Z,3.13
2022-08-09T20:08:57.203Z,8.35
2022-08-09T20:11:26.577Z,3.55
2022-08-09T20:13:54.812Z,5.50
2022-08-09T20:16:37.626Z,7.03
2022-08-09T20:19:47.792Z,4.13
2022-08-09T20:22:00.068Z,6.07
2022-08-09T20:24:31.953Z,3.38
2022-08-09T20:27:07.835Z,4.80
2022-08-09T20:29:37.289Z,5.03
2022-08-09T20:32:30.890Z,3.30
2022-08-09T20:34:54.023Z,2.22
2022-08-09T20:37:21.324Z,2.50
2022-08-09T20:40:15.998Z,3.83
2022-08-09T20:42:38.096Z,5.35
2022-08-09T20:46:01.767Z,6.03
2022-08-09T20:47:52.497Z,2.95
2022-08-09T20:50:48.055Z,5.38
2022-08-09T20:53:18.586Z,4.43
2022-08-09T20:56:00.995Z,2.30
2022-08-09T20:58:32.752Z,2.97
2022-08-09T21:01:33.463Z,4.13
2022-08-09T21:05:49.069Z,4.28
2022-08-09T21:06:36.382Z,2.65
2022-08-09T21:09:06.679Z,4.95
2022-08-09T21:14:27.291Z,4.00
2022-08-09T21:16:59.469Z,4.50
2022-08-09T21:20:18.200Z,4.93
2022-08-09T21:22:36.297Z,5.80
2022-08-09T21:25:20.641Z,2.40
2022-08-09T21:27:52.313Z,6.53
2022-08-09T21:30:22.477Z,6.65
2022-08-09T21:32:52.979Z,5.15
2022-08-09T21:35:21.497Z,2.70
2022-08-09T21:37:59.690Z,2.90
2022-08-09T21:40:31.001Z,7.05
2022-08-09T21:43:04.264Z,4.85
2022-08-09T21:45:33.446Z,2.92
2022-08-09T21:48:07.045Z,5.88
2022-08-09T21:50:38.783Z,3.87
2022-08-09T21:53:22.387Z,2.92
2022-08-09T21:55:54.302Z,2.65
2022-08-09T21:58:20.976Z,3.75
2022-08-09T22:00:55.905Z,5.85
2022-08-09T22:03:25.449Z,3.27
2022-08-09T22:05:53.309Z,3.47
2022-08-09T22:08:24.677Z,4.35
2022-08-09T22:11:05.202Z,3.13
2022-08-09T22:13:42.347Z,4.90
2022-08-09T22:16:10.764Z,3.67
2022-08-09T22:18:54.356Z,2.60
2022-08-09T22:21:27.424Z,5.18
2022-08-09T22:24:16.925Z,4.50
2022-08-09T22:26:51.111Z,2.40
2022-08-09T22:29:18.001Z,7.57
2022-08-09T22:31:57.006Z,3.80
2022-08-09T22:34:28.289Z,2.53
2022-08-09T22:36:56.847Z,5.47
2022-08-09T22:39:56.360Z,3.58
2022-08-09T22:42:20.938Z,2.93
2022-08-09T22:48:04.505Z,2.35
2022-08-09T22:48:13.621Z,3.83
2022-08-09T22:50:23.780Z,2.85
2022-08-09T22:52:57.647Z,2.42
2022-08-09T22:55:33.671Z,1.83
2022-08-09T22:58:30.800Z,3.58
2022-08-09T23:01:00.398Z,2.33
2022-08-09T23:04:02.789Z,3.00
2022-08-09T23:06:14.238Z,4.20
2022-08-09T23:08:44.760Z,4.40
2022-08-09T23:11:16.628Z,2.78
2022-08-09T23:13:44.163Z,2.45
2022-08-09T23:16:12.838Z,2.45
2022-08-09T23:18:40.923Z,3.13
2022-08-09T23:21:09.893Z,3.13
2022-08-09T23:23:37.264Z,2.78
2022-08-09T23:26:04.361Z,2.90
2022-08-09T23:28:31.014Z,2.42
2022-08-09T23:30:57.843Z,2.25
2022-08-09T23:33:24.819Z,1.87
2022-08-09T23:36:05.149Z,2.35
2022-08-09T23:38:34.638Z,5.13
2022-08-09T23:41:01.667Z,1.90
2022-08-09T23:43:28.265Z,4.70
2022-08-09T23:45:54.912Z,2.10
2022-08-09T23:48:21.640Z,3.05
2022-08-09T23:50:48.342Z,4.95
2022-08-09T23:53:14.980Z,1.73
2022-08-09T23:55:49.289Z,2.40
2022-08-09T23:58:27.617Z,2.60
